createdAt,value
2022-12-20T08:32:34.115Z,17.13
2022-12-20T08:32:45.456Z,17.16
2022-12-20T08:32:57.031Z,17.22
2022-12-20T08:33:08.343Z,17.23
2022-12-20T08:33:19.900Z,17.26
2022-12-20T08:33:31.198Z,17.27
2022-12-20T08:33:42.754Z,17.29
2022-12-20T08:33:52.875Z,17.32
2022-12-20T08:34:04.435Z,17.33
2022-12-20T08:34:15.749Z,17.34
2022-12-20T08:34:27.302Z,17.35
2022-12-20T08:34:38.625Z,17.36
2022-12-20T08:34:50.179Z,17.38
2022-12-20T08:35:01.483Z,17.39
2022-12-20T08:35:13.255Z,17.40
2022-12-20T08:35:24.596Z,17.41
2022-12-20T08:35:36.172Z,17.43
2022-12-20T08:35:47.475Z,17.44
2022-12-20T08:35:59.055Z,17.45
2022-12-20T08:36:10.349Z,17.47
2022-12-20T08:36:21.909Z,17.48
2022-12-20T08:36:33.219Z,17.49
2022-12-20T08:36:44.779Z,17.51
2022-12-20T08:36:56.088Z,17.51
2022-12-20T08:37:14.364Z,17.53
2022-12-20T08:37:19.600Z,17.53
2022-12-20T08:37:30.909Z,17.54
2022-12-20T08:37:42.505Z,17.56
2022-12-20T08:37:53.792Z,17.58
2022-12-20T08:38:05.357Z,17.59
2022-12-20T08:38:16.725Z,17.59
2022-12-20T08:38:28.284Z,17.61
2022-12-20T08:38:39.581Z,17.61
2022-12-20T08:38:51.133Z,17.64
2022-12-20T08:39:02.444Z,17.65
2022-12-20T08:39:13.996Z,17.65
2022-12-20T08:39:25.310Z,17.67
2022-12-20T08:39:36.889Z,17.68
2022-12-20T08:39:48.221Z,17.68
2022-12-20T08:39:59.778Z,17.70
2022-12-20T08:40:11.089Z,17.71
2022-12-20T08:40:22.653Z,17.72
2022-12-20T08:40:33.941Z,17.73
2022-12-20T08:40:45.490Z,17.74
2022-12-20T08:40:56.794Z,17.75
2022-12-20T08:41:08.351Z,17.76
2022-12-20T08:41:19.668Z,17.77
2022-12-20T08:41:31.239Z,17.77
2022-12-20T08:41:42.524Z,17.79
2022-12-20T08:41:54.083Z,17.81
2022-12-20T08:42:05.371Z,17.82
2022-12-20T08:42:16.920Z,17.83
2022-12-20T08:42:28.210Z,17.83
2022-12-20T08:42:38.303Z,17.83
2022-12-20T08:42:49.899Z,17.84
2022-12-20T08:43:05.166Z,17.86
2022-12-20T08:43:13.112Z,17.84
2022-12-20T08:43:24.407Z,17.86
2022-12-20T08:43:35.957Z,17.87
2022-12-20T08:43:47.246Z,17.89
2022-12-20T08:43:58.795Z,17.89
2022-12-20T08:44:10.096Z,17.90
2022-12-20T08:44:21.652Z,17.92
2022-12-20T08:44:32.952Z,17.92
2022-12-20T08:44:44.512Z,17.95
2022-12-20T08:44:55.828Z,17.94
2022-12-20T08:45:07.394Z,17.95
2022-12-20T08:45:18.694Z,17.96
2022-12-20T08:45:30.236Z,17.97
2022-12-20T08:45:41.606Z,17.98
2022-12-20T08:45:53.261Z,17.99
2022-12-20T08:46:04.666Z,18.00
2022-12-20T08:46:16.315Z,18.01
2022-12-20T08:46:27.832Z,18.01
2022-12-20T08:46:39.532Z,18.02
2022-12-20T08:46:50.848Z,18.03
2022-12-20T08:47:02.418Z,18.04
2022-12-20T08:47:13.705Z,18.04
2022-12-20T08:47:25.254Z,18.05
2022-12-20T08:47:36.579Z,18.06
2022-12-20T08:47:48.135Z,18.07
2022-12-20T08:47:59.477Z,18.08
2022-12-20T08:48:11.040Z,18.09
2022-12-20T08:48:22.337Z,18.10
2022-12-20T08:48:33.908Z,18.11
2022-12-20T08:48:45.214Z,18.11
2022-12-20T08:48:56.781Z,18.13
2022-12-20T08:49:08.079Z,18.13
2022-12-20T08:49:19.623Z,18.14
2022-12-20T08:49:30.912Z,18.15
2022-12-20T08:49:47.157Z,18.16
2022-12-20T08:49:54.412Z,18.15
2022-12-20T08:50:05.708Z,18.16
2022-12-20T08:50:17.268Z,18.18
2022-12-20T08:50:28.572Z,18.17
2022-12-20T08:50:40.122Z,18.19
2022-12-20T08:50:51.476Z,18.19
2022-12-20T08:51:03.116Z,18.21
2022-12-20T08:51:14.545Z,18.21
2022-12-20T08:51:26.280Z,18.22
2022-12-20T08:51:37.763Z,18.23
2022-12-20T08:51:49.437Z,18.24
2022-12-20T08:52:00.951Z,18.24
2022-12-20T08:52:12.543Z,18.25
2022-12-20T08:52:23.846Z,18.26
2022-12-20T08:52:35.408Z,18.27
2022-12-20T08:52:46.717Z,18.27
2022-12-20T08:52:58.297Z,18.28
2022-12-20T08:53:09.611Z,18.29
2022-12-20T08:53:21.162Z,18.30
2022-12-20T08:53:32.489Z,18.30
2022-12-20T08:53:44.059Z,18.31
2022-12-20T08:53:55.353Z,18.31
2022-12-20T08:54:06.920Z,18.33
2022-12-20T08:54:18.225Z,18.34
2022-12-20T08:54:29.803Z,18.35
2022-12-20T08:54:41.109Z,18.35
2022-12-20T08:54:52.659Z,18.36
2022-12-20T08:55:05.256Z,18.37
2022-12-20T08:55:14.706Z,18.36
2022-12-20T08:55:29.252Z,18.37
2022-12-20T08:55:36.864Z,18.37
2022-12-20T08:55:48.175Z,18.39
2022-12-20T08:55:59.728Z,18.40
2022-12-20T08:56:11.029Z,18.40
2022-12-20T08:56:22.583Z,18.41
2022-12-20T08:56:33.889Z,18.43
2022-12-20T08:56:45.444Z,18.43
2022-12-20T08:56:56.741Z,18.44
2022-12-20T08:57:08.306Z,18.45
2022-12-20T08:57:19.619Z,18.46
2022-12-20T08:57:31.234Z,18.46
2022-12-20T08:57:42.532Z,18.47
2022-12-20T08:57:54.088Z,18.48
2022-12-20T08:58:05.379Z,18.49
2022-12-20T08:58:16.991Z,18.50
2022-12-20T08:58:28.288Z,18.50
2022-12-20T08:58:40.560Z,18.51
2022-12-20T08:58:51.857Z,18.51
2022-12-20T08:59:03.420Z,18.53
2022-12-20T08:59:14.732Z,18.53
2022-12-20T08:59:26.286Z,18.54
2022-12-20T08:59:37.588Z,18.55
2022-12-20T08:59:49.144Z,18.55
2022-12-20T09:00:00.460Z,18.56
2022-12-20T09:00:12.031Z,18.58
2022-12-20T09:00:23.342Z,18.58
2022-12-20T09:00:34.903Z,18.59
2022-12-20T09:00:46.244Z,18.59
2022-12-20T09:01:01.749Z,18.60
2022-12-20T09:01:09.770Z,18.59
2022-12-20T09:01:21.195Z,18.60
2022-12-20T09:01:32.948Z,18.62
2022-12-20T09:01:44.432Z,18.63
2022-12-20T09:01:56.279Z,18.64
2022-12-20T09:02:08.020Z,18.64
2022-12-20T09:02:20.065Z,18.65
2022-12-20T09:02:32.199Z,18.67
2022-12-20T09:02:44.273Z,18.68
2022-12-20T09:02:55.813Z,18.67
2022-12-20T09:03:07.800Z,18.68
2022-12-20T09:03:19.476Z,18.69
2022-12-20T09:03:31.211Z,18.69
2022-12-20T09:03:42.669Z,18.71
2022-12-20T09:03:54.538Z,18.71
2022-12-20T09:04:05.988Z,18.72
2022-12-20T09:04:17.586Z,18.73
2022-12-20T09:04:28.889Z,18.73
2022-12-20T09:04:40.459Z,18.75
2022-12-20T09:04:51.769Z,18.75
2022-12-20T09:05:03.334Z,18.76
2022-12-20T09:05:14.665Z,18.77
2022-12-20T09:05:26.249Z,18.78
2022-12-20T09:05:37.535Z,18.78
2022-12-20T09:05:49.085Z,18.79
2022-12-20T09:06:00.370Z,18.79
2022-12-20T09:06:11.958Z,18.80
2022-12-20T09:06:23.314Z,18.81
2022-12-20T09:06:34.873Z,18.82
2022-12-20T09:06:46.172Z,18.82
2022-12-20T09:06:57.733Z,18.83
2022-12-20T09:07:09.020Z,18.84
2022-12-20T09:07:20.588Z,18.85
2022-12-20T09:07:31.904Z,18.85
2022-12-20T09:07:43.504Z,18.86
2022-12-20T09:07:54.811Z,18.86
2022-12-20T09:08:06.363Z,18.88
2022-12-20T09:08:17.653Z,18.88
2022-12-20T09:08:29.247Z,18.88
2022-12-20T09:08:40.558Z,18.89
2022-12-20T09:08:52.167Z,18.90
2022-12-20T09:09:03.479Z,18.91
2022-12-20T09:09:15.040Z,18.92
2022-12-20T09:09:26.343Z,18.93
2022-12-20T09:09:37.914Z,18.94
2022-12-20T09:09:49.237Z,18.94
2022-12-20T09:10:00.792Z,18.95
2022-12-20T09:10:12.099Z,18.95
2022-12-20T09:10:23.649Z,18.96
2022-12-20T09:10:34.933Z,18.97
2022-12-20T09:10:46.495Z,18.98
2022-12-20T09:10:57.826Z,18.99
2022-12-20T09:11:09.395Z,18.99
2022-12-20T09:11:20.692Z,19.00
2022-12-20T09:11:32.259Z,19.01
2022-12-20T09:11:43.551Z,19.01
2022-12-20T09:11:55.116Z,19.02
2022-12-20T09:12:06.439Z,19.02
2022-12-20T09:12:17.999Z,19.03
2022-12-20T09:12:29.319Z,19.04
2022-12-20T09:12:40.881Z,19.05
2022-12-20T09:12:52.212Z,19.05
2022-12-20T09:13:03.766Z,19.06
2022-12-20T09:13:15.084Z,19.07
2022-12-20T09:13:26.653Z,19.09
2022-12-20T09:13:43.676Z,19.09
2022-12-20T09:13:49.963Z,19.08
2022-12-20T09:14:01.267Z,19.09
2022-12-20T09:14:12.822Z,19.10
2022-12-20T09:14:24.114Z,19.11
2022-12-20T09:14:35.682Z,19.12
2022-12-20T09:14:46.999Z,19.12
2022-12-20T09:14:58.565Z,19.14
2022-12-20T09:15:09.874Z,19.15
2022-12-20T09:15:21.433Z,19.15
2022-12-20T09:15:32.792Z,19.16
2022-12-20T09:15:44.457Z,19.17
2022-12-20T09:15:55.850Z,19.17
2022-12-20T09:16:07.512Z,19.19
2022-12-20T09:16:19.062Z,19.18
2022-12-20T09:16:30.743Z,19.19
2022-12-20T09:16:42.108Z,19.19
2022-12-20T09:16:53.655Z,19.21
2022-12-20T09:17:04.962Z,19.22
2022-12-20T09:17:16.560Z,19.23
2022-12-20T09:17:27.845Z,19.23
2022-12-20T09:17:39.427Z,19.25
2022-12-20T09:17:50.734Z,19.24
2022-12-20T09:18:02.281Z,19.26
2022-12-20T09:18:13.576Z,19.26
2022-12-20T09:18:25.174Z,19.27
2022-12-20T09:18:36.493Z,19.27
2022-12-20T09:18:48.061Z,19.28
2022-12-20T09:19:04.984Z,19.28
2022-12-20T09:19:11.329Z,19.27
2022-12-20T09:19:22.625Z,19.29
2022-12-20T09:19:34.180Z,19.30
2022-12-20T09:19:45.491Z,19.30
2022-12-20T09:19:57.038Z,19.31
2022-12-20T09:20:08.319Z,19.32
2022-12-20T09:20:19.879Z,19.33
2022-12-20T09:20:31.176Z,19.33
2022-12-20T09:20:42.722Z,19.34
2022-12-20T09:20:54.026Z,19.35
2022-12-20T09:21:05.595Z,19.36
2022-12-20T09:21:16.896Z,19.36
2022-12-20T09:21:28.447Z,19.36
2022-12-20T09:21:39.777Z,19.37
2022-12-20T09:21:51.320Z,19.37
2022-12-20T09:22:02.612Z,19.38
2022-12-20T09:22:14.149Z,19.39
2022-12-20T09:22:25.442Z,19.40
2022-12-20T09:22:36.977Z,19.40
2022-12-20T09:22:48.267Z,19.40
2022-12-20T09:22:59.834Z,19.42
2022-12-20T09:23:11.141Z,19.42
2022-12-20T09:23:22.705Z,19.43
2022-12-20T09:23:34.008Z,19.43
2022-12-20T09:23:45.585Z,19.44
2022-12-20T09:23:56.947Z,19.44
2022-12-20T09:24:08.486Z,19.45
2022-12-20T09:24:19.788Z,19.45
2022-12-20T09:24:31.344Z,19.46
2022-12-20T09:24:42.682Z,19.46
2022-12-20T09:24:54.249Z,19.47
2022-12-20T09:25:05.566Z,19.47
2022-12-20T09:25:17.114Z,19.49
2022-12-20T09:25:28.408Z,19.49
2022-12-20T09:25:39.963Z,19.49
2022-12-20T09:25:53.963Z,19.50
2022-12-20T09:26:01.249Z,19.49
2022-12-20T09:26:12.537Z,19.50
2022-12-20T09:26:24.098Z,19.51
2022-12-20T09:26:35.488Z,19.52
2022-12-20T09:26:50.556Z,19.52
2022-12-20T09:26:58.993Z,19.52
2022-12-20T09:27:10.301Z,19.53
2022-12-20T09:27:21.863Z,19.54
2022-12-20T09:27:33.168Z,19.55
2022-12-20T09:27:44.721Z,19.55
2022-12-20T09:27:56.004Z,19.56
2022-12-20T09:28:07.579Z,19.56
2022-12-20T09:28:18.871Z,19.57
2022-12-20T09:28:30.425Z,19.58
2022-12-20T09:28:41.726Z,19.58
2022-12-20T09:28:53.309Z,19.59
2022-12-20T09:29:04.652Z,19.59
2022-12-20T09:29:22.986Z,19.60
2022-12-20T09:29:33.722Z,19.58
2022-12-20T09:29:40.053Z,19.59
2022-12-20T09:29:51.357Z,19.60
2022-12-20T09:30:02.913Z,19.61
2022-12-20T09:30:14.207Z,19.62
2022-12-20T09:30:25.758Z,19.62
2022-12-20T09:30:37.254Z,19.62
2022-12-20T09:30:48.894Z,19.63
2022-12-20T09:31:00.473Z,19.64
2022-12-20T09:31:12.141Z,19.64
2022-12-20T09:31:23.514Z,19.65
2022-12-20T09:31:35.171Z,19.66
2022-12-20T09:31:46.635Z,19.65
2022-12-20T09:31:58.204Z,19.67
2022-12-20T09:32:09.500Z,19.67
2022-12-20T09:32:21.052Z,19.68
2022-12-20T09:32:32.405Z,19.68
2022-12-20T09:32:43.971Z,19.69
2022-12-20T09:32:55.381Z,19.69
2022-12-20T09:33:10.268Z,19.70
2022-12-20T09:33:17.771Z,19.69
2022-12-20T09:33:29.076Z,19.70
2022-12-20T09:33:40.628Z,19.71
2022-12-20T09:33:51.911Z,19.72
2022-12-20T09:34:03.463Z,19.73
2022-12-20T09:34:15.092Z,19.73
2022-12-20T09:34:26.657Z,19.74
2022-12-20T09:34:37.952Z,19.74
2022-12-20T09:34:49.516Z,19.75
2022-12-20T09:35:00.815Z,19.75
2022-12-20T09:35:15.479Z,19.76
2022-12-20T09:35:24.300Z,19.75
2022-12-20T09:35:35.595Z,19.76
2022-12-20T09:35:47.151Z,19.77
2022-12-20T09:35:58.494Z,19.77
2022-12-20T09:36:10.039Z,19.79
2022-12-20T09:36:21.339Z,19.78
2022-12-20T09:36:32.911Z,19.79
2022-12-20T09:36:44.230Z,19.80
2022-12-20T09:36:55.787Z,19.80
2022-12-20T09:37:07.088Z,19.81
2022-12-20T09:37:18.648Z,19.81
2022-12-20T09:37:29.961Z,19.82
2022-12-20T09:37:41.522Z,19.83
2022-12-20T09:37:52.810Z,19.83
2022-12-20T09:38:04.351Z,19.84
2022-12-20T09:38:15.652Z,19.84
2022-12-20T09:38:27.200Z,19.84
2022-12-20T09:38:38.518Z,19.84
2022-12-20T09:38:50.070Z,19.85
2022-12-20T09:39:01.365Z,19.86
2022-12-20T09:39:12.921Z,19.86
2022-12-20T09:39:24.248Z,19.88
2022-12-20T09:39:35.802Z,19.87
2022-12-20T09:39:47.097Z,19.87
2022-12-20T09:39:58.650Z,19.88
2022-12-20T09:40:09.954Z,19.89
2022-12-20T09:40:21.589Z,19.90
2022-12-20T09:40:32.901Z,19.90
2022-12-20T09:40:44.447Z,19.90
2022-12-20T09:40:55.742Z,19.91
2022-12-20T09:41:07.301Z,19.91
2022-12-20T09:41:22.575Z,19.91
2022-12-20T09:41:30.084Z,19.89
2022-12-20T09:41:41.367Z,19.91
2022-12-20T09:41:52.910Z,19.92
2022-12-20T09:42:04.221Z,19.93
2022-12-20T09:42:15.783Z,19.93
2022-12-20T09:42:27.072Z,19.94
2022-12-20T09:42:38.627Z,19.94
2022-12-20T09:42:49.957Z,19.94
2022-12-20T09:43:01.504Z,19.94
2022-12-20T09:43:12.961Z,19.95
2022-12-20T09:43:24.524Z,19.96
2022-12-20T09:43:35.823Z,19.96
2022-12-20T09:43:47.362Z,19.97
2022-12-20T09:43:58.668Z,19.97
2022-12-20T09:44:10.228Z,19.97
2022-12-20T09:44:21.554Z,19.98
2022-12-20T09:44:33.180Z,19.99
2022-12-20T09:44:44.471Z,19.99
2022-12-20T09:44:56.017Z,20.00
2022-12-20T09:45:07.328Z,19.99
2022-12-20T09:45:18.891Z,20.00
2022-12-20T09:45:30.190Z,20.00
2022-12-20T09:45:41.734Z,20.01
2022-12-20T09:45:53.073Z,20.01
2022-12-20T09:46:04.707Z,20.02
2022-12-20T09:46:16.124Z,20.03
2022-12-20T09:46:27.784Z,20.03
2022-12-20T09:46:39.207Z,20.04
2022-12-20T09:46:50.883Z,20.04
2022-12-20T09:47:08.268Z,20.04
2022-12-20T09:47:14.233Z,20.03
2022-12-20T09:47:25.576Z,20.04
2022-12-20T09:47:37.117Z,20.05
2022-12-20T09:47:48.439Z,20.05
2022-12-20T09:48:00.040Z,20.06
2022-12-20T09:48:11.345Z,20.06
2022-12-20T09:48:22.891Z,20.07
2022-12-20T09:48:34.183Z,20.07
2022-12-20T09:48:45.741Z,20.08
2022-12-20T09:48:57.065Z,20.08
2022-12-20T09:49:08.623Z,20.09
2022-12-20T09:49:19.942Z,20.09
2022-12-20T09:49:31.501Z,20.09
2022-12-20T09:49:42.874Z,20.09
2022-12-20T09:49:54.473Z,20.11
2022-12-20T09:50:05.793Z,20.10
2022-12-20T09:50:17.337Z,20.11
2022-12-20T09:50:28.623Z,20.12
2022-12-20T09:50:40.170Z,20.12
2022-12-20T09:50:51.456Z,20.12
2022-12-20T09:51:03.016Z,20.13
2022-12-20T09:51:14.327Z,20.13
2022-12-20T09:51:25.874Z,20.14
2022-12-20T09:51:37.212Z,20.14
2022-12-20T09:51:48.814Z,20.15
2022-12-20T09:52:00.144Z,20.15
2022-12-20T09:52:11.689Z,20.16
2022-12-20T09:52:22.994Z,20.16
2022-12-20T09:52:34.565Z,20.17
2022-12-20T09:52:45.864Z,20.16
2022-12-20T09:52:57.422Z,20.18
2022-12-20T09:53:12.218Z,20.18
2022-12-20T09:53:20.644Z,20.16
2022-12-20T09:53:31.953Z,20.17
2022-12-20T09:53:43.506Z,20.18
2022-12-20T09:53:54.826Z,20.19
2022-12-20T09:54:06.397Z,20.20
2022-12-20T09:54:17.688Z,20.21
2022-12-20T09:54:29.252Z,20.22
2022-12-20T09:54:40.547Z,20.21
2022-12-20T09:54:52.155Z,20.22
2022-12-20T09:55:03.435Z,20.22
2022-12-20T09:55:14.986Z,20.23
2022-12-20T09:55:26.301Z,20.23
2022-12-20T09:55:37.891Z,20.24
2022-12-20T09:55:49.195Z,20.24
2022-12-20T09:56:00.757Z,20.25
2022-12-20T09:56:12.064Z,20.25
2022-12-20T09:56:23.616Z,20.27
2022-12-20T09:56:34.919Z,20.26
2022-12-20T09:56:46.479Z,20.27
2022-12-20T09:56:57.769Z,20.27
2022-12-20T09:57:09.312Z,20.28
2022-12-20T09:57:20.614Z,20.28
2022-12-20T09:57:32.174Z,20.28
2022-12-20T09:57:43.497Z,20.29
2022-12-20T09:57:55.054Z,20.29
2022-12-20T09:58:06.339Z,20.30
2022-12-20T09:58:17.898Z,20.31
2022-12-20T09:58:29.206Z,20.30
2022-12-20T09:58:40.760Z,20.31
2022-12-20T09:58:52.055Z,20.31
2022-12-20T09:59:03.621Z,20.31
2022-12-20T09:59:14.910Z,20.32
2022-12-20T09:59:26.455Z,20.33
2022-12-20T09:59:41.330Z,20.33
2022-12-20T09:59:50.272Z,20.31
2022-12-20T10:00:01.903Z,20.33
2022-12-20T10:00:13.218Z,20.34
2022-12-20T10:00:24.852Z,20.35
2022-12-20T10:00:36.683Z,20.34
2022-12-20T10:00:53.469Z,20.36
2022-12-20T10:01:00.220Z,20.34
2022-12-20T10:01:15.172Z,20.36
2022-12-20T10:01:25.323Z,20.33
2022-12-20T10:01:38.589Z,20.34
2022-12-20T10:01:45.558Z,20.34
2022-12-20T10:02:03.645Z,20.36
2022-12-20T10:02:35.446Z,20.34
2022-12-20T10:02:54.429Z,20.34
2022-12-20T10:02:57.009Z,20.35
2022-12-20T10:02:58.905Z,20.35
2022-12-20T10:03:06.536Z,20.35
2022-12-20T10:03:10.384Z,20.36
2022-12-20T10:03:20.085Z,20.37
2022-12-20T10:03:31.926Z,20.38
2022-12-20T10:03:43.647Z,20.38
2022-12-20T10:03:55.492Z,20.39
2022-12-20T10:04:07.236Z,20.39
2022-12-20T10:04:19.238Z,20.41
2022-12-20T10:04:31.184Z,20.43
2022-12-20T10:04:42.811Z,20.42
2022-12-20T10:04:54.657Z,20.42
2022-12-20T10:05:06.189Z,20.42
2022-12-20T10:05:18.027Z,20.43
2022-12-20T10:05:32.945Z,20.43
2022-12-20T10:05:41.934Z,20.42
2022-12-20T10:05:51.655Z,20.44
2022-12-20T10:06:03.545Z,20.44
2022-12-20T10:06:14.912Z,20.44
2022-12-20T10:06:26.470Z,20.45
2022-12-20T10:06:37.784Z,20.45
2022-12-20T10:06:49.347Z,20.46
2022-12-20T10:07:00.651Z,20.47
2022-12-20T10:07:12.218Z,20.48
2022-12-20T10:07:23.519Z,20.47
2022-12-20T10:07:35.081Z,20.48
2022-12-20T10:07:46.385Z,20.48
2022-12-20T10:07:57.956Z,20.48
2022-12-20T10:08:09.263Z,20.49
2022-12-20T10:08:20.828Z,20.50
2022-12-20T10:08:32.128Z,20.50
2022-12-20T10:08:43.712Z,20.51
2022-12-20T10:08:54.995Z,20.50
2022-12-20T10:09:06.545Z,20.51
2022-12-20T10:09:17.837Z,20.52
2022-12-20T10:09:29.437Z,20.52
2022-12-20T10:09:40.750Z,20.52
2022-12-20T10:09:52.304Z,20.52
2022-12-20T10:10:03.580Z,20.53
2022-12-20T10:10:15.183Z,20.53
2022-12-20T10:10:26.488Z,20.53
2022-12-20T10:10:38.035Z,20.55
2022-12-20T10:10:49.334Z,20.54
2022-12-20T10:11:00.877Z,20.55
2022-12-20T10:11:12.176Z,20.54
2022-12-20T10:11:23.715Z,20.55
2022-12-20T10:11:42.039Z,20.55
2022-12-20T10:11:50.818Z,20.53
2022-12-20T10:11:58.072Z,20.53
2022-12-20T10:12:09.366Z,20.54
2022-12-20T10:12:20.933Z,20.56
2022-12-20T10:12:32.212Z,20.56
2022-12-20T10:12:43.764Z,20.56
2022-12-20T10:12:55.063Z,20.58
2022-12-20T10:13:06.624Z,20.58
2022-12-20T10:13:17.917Z,20.58
2022-12-20T10:13:29.459Z,20.58
2022-12-20T10:13:40.754Z,20.59
2022-12-20T10:13:52.307Z,20.59
2022-12-20T10:14:03.593Z,20.59
2022-12-20T10:14:15.139Z,20.60
2022-12-20T10:14:26.436Z,20.61
2022-12-20T10:14:37.984Z,20.61
2022-12-20T10:14:49.284Z,20.61
2022-12-20T10:15:00.826Z,20.61
2022-12-20T10:15:12.164Z,20.62
2022-12-20T10:15:23.768Z,20.62
2022-12-20T10:15:35.160Z,20.63
2022-12-20T10:15:46.810Z,20.63
2022-12-20T10:15:58.227Z,20.63
2022-12-20T10:16:09.898Z,20.63
2022-12-20T10:16:21.312Z,20.64
2022-12-20T10:16:32.982Z,20.64
2022-12-20T10:16:44.342Z,20.64
2022-12-20T10:16:55.900Z,20.64
2022-12-20T10:17:07.183Z,20.65
2022-12-20T10:17:18.728Z,20.66
2022-12-20T10:17:32.577Z,20.66
2022-12-20T10:17:42.102Z,20.65
2022-12-20T10:17:53.657Z,20.66
2022-12-20T10:18:04.961Z,20.66
2022-12-20T10:18:16.525Z,20.67
2022-12-20T10:18:27.810Z,20.67
2022-12-20T10:18:39.370Z,20.68
2022-12-20T10:18:50.700Z,20.68
2022-12-20T10:19:02.252Z,20.68
2022-12-20T10:19:13.560Z,20.69
2022-12-20T10:19:25.117Z,20.69
2022-12-20T10:19:36.414Z,20.70
2022-12-20T10:19:47.979Z,20.70
2022-12-20T10:19:59.294Z,20.70
2022-12-20T10:20:10.839Z,20.71
2022-12-20T10:20:22.130Z,20.71
2022-12-20T10:20:33.710Z,20.71
2022-12-20T10:20:45.005Z,20.71
2022-12-20T10:20:56.547Z,20.72
2022-12-20T10:21:07.838Z,20.72
2022-12-20T10:21:19.395Z,20.72
2022-12-20T10:21:30.686Z,20.73
2022-12-20T10:21:42.243Z,20.73
2022-12-20T10:21:53.535Z,20.73
2022-12-20T10:22:05.087Z,20.74
2022-12-20T10:22:16.384Z,20.74
2022-12-20T10:22:27.932Z,20.75
2022-12-20T10:22:39.226Z,20.75
2022-12-20T10:22:50.799Z,20.75
2022-12-20T10:23:02.087Z,20.76
2022-12-20T10:23:13.632Z,20.76
2022-12-20T10:23:32.525Z,20.76
2022-12-20T10:23:36.861Z,20.74
2022-12-20T10:23:48.165Z,20.75
2022-12-20T10:23:59.751Z,20.76
2022-12-20T10:24:11.050Z,20.77
2022-12-20T10:24:22.632Z,20.78
2022-12-20T10:24:33.962Z,20.78
2022-12-20T10:24:45.523Z,20.78
2022-12-20T10:24:56.828Z,20.79
2022-12-20T10:25:08.388Z,20.79
2022-12-20T10:25:19.676Z,20.79
2022-12-20T10:25:31.226Z,20.80
2022-12-20T10:25:42.592Z,20.81
2022-12-20T10:25:54.171Z,20.81
2022-12-20T10:26:05.591Z,20.81
2022-12-20T10:26:17.200Z,20.82
2022-12-20T10:26:28.512Z,20.82
2022-12-20T10:26:40.081Z,20.82
2022-12-20T10:26:51.404Z,20.83
2022-12-20T10:27:02.979Z,20.83
2022-12-20T10:27:14.350Z,20.83
2022-12-20T10:27:25.927Z,20.83
2022-12-20T10:27:37.233Z,20.83
2022-12-20T10:27:48.777Z,20.84
2022-12-20T10:28:00.084Z,20.84
2022-12-20T10:28:11.686Z,20.84
2022-12-20T10:28:23.008Z,20.85
2022-12-20T10:28:34.563Z,20.85
2022-12-20T10:28:50.726Z,20.86
2022-12-20T10:28:57.783Z,20.84
2022-12-20T10:29:09.084Z,20.84
2022-12-20T10:29:20.659Z,20.86
2022-12-20T10:29:31.951Z,20.86
2022-12-20T10:29:43.497Z,20.87
2022-12-20T10:29:54.802Z,20.87
2022-12-20T10:30:06.358Z,20.88
2022-12-20T10:30:17.654Z,20.88
2022-12-20T10:30:29.214Z,20.88
2022-12-20T10:30:40.527Z,20.88
2022-12-20T10:30:52.153Z,20.89
2022-12-20T10:31:03.571Z,20.89
2022-12-20T10:31:15.288Z,20.89
2022-12-20T10:31:26.843Z,20.90
2022-12-20T10:31:38.542Z,20.89
2022-12-20T10:31:49.926Z,20.90
2022-12-20T10:32:01.493Z,20.90
2022-12-20T10:32:12.844Z,20.91
2022-12-20T10:32:24.410Z,20.91
2022-12-20T10:32:35.742Z,20.91
2022-12-20T10:32:47.301Z,20.91
2022-12-20T10:32:58.598Z,20.92
2022-12-20T10:33:10.154Z,20.92
2022-12-20T10:33:21.535Z,20.92
2022-12-20T10:33:33.100Z,20.93
2022-12-20T10:33:44.407Z,20.93
2022-12-20T10:33:54.448Z,20.93
2022-12-20T10:34:06.010Z,20.93
2022-12-20T10:34:17.320Z,20.93
2022-12-20T10:34:36.751Z,20.94
2022-12-20T10:34:46.698Z,20.92
2022-12-20T10:34:52.737Z,20.92
2022-12-20T10:35:04.036Z,20.93
2022-12-20T10:35:15.597Z,20.95
2022-12-20T10:35:26.923Z,20.94
2022-12-20T10:35:38.476Z,20.95
2022-12-20T10:35:49.773Z,20.95
2022-12-20T10:36:01.356Z,20.96
2022-12-20T10:36:12.640Z,20.96
2022-12-20T10:36:24.310Z,20.96
2022-12-20T10:36:35.605Z,20.97
2022-12-20T10:36:47.143Z,20.97
2022-12-20T10:36:58.429Z,20.98
2022-12-20T10:37:09.987Z,20.98
2022-12-20T10:37:21.320Z,20.97
2022-12-20T10:37:32.906Z,20.99
2022-12-20T10:38:00.033Z,20.99
2022-12-20T10:38:07.142Z,20.96
2022-12-20T10:38:09.130Z,20.97
2022-12-20T10:38:18.631Z,20.98
2022-12-20T10:38:30.191Z,20.99
2022-12-20T10:38:41.498Z,21.00
2022-12-20T10:38:53.062Z,21.01
2022-12-20T10:39:04.376Z,21.01
2022-12-20T10:39:15.934Z,21.02
2022-12-20T10:39:27.237Z,21.02
2022-12-20T10:39:38.792Z,21.03
2022-12-20T10:39:50.094Z,21.02
2022-12-20T10:40:06.938Z,21.04
2022-12-20T10:40:13.569Z,21.02
2022-12-20T10:40:39.370Z,21.04
2022-12-20T10:41:10.331Z,21.02
2022-12-20T10:41:21.894Z,21.02
2022-12-20T10:41:24.547Z,21.02
2022-12-20T10:41:35.850Z,21.04
2022-12-20T10:41:47.388Z,21.05
2022-12-20T10:41:58.685Z,21.05
2022-12-20T10:42:10.245Z,21.06
2022-12-20T10:42:21.541Z,21.06
2022-12-20T10:42:33.111Z,21.07
2022-12-20T10:42:44.445Z,21.08
2022-12-20T10:42:56.009Z,21.09
2022-12-20T10:43:07.294Z,21.09
2022-12-20T10:43:18.840Z,21.09
2022-12-20T10:43:30.141Z,21.09
2022-12-20T10:43:41.704Z,21.09
2022-12-20T10:43:53.002Z,21.10
2022-12-20T10:44:04.552Z,21.10
2022-12-20T10:44:15.862Z,21.10
2022-12-20T10:44:27.494Z,21.10
2022-12-20T10:44:38.789Z,21.11
2022-12-20T10:44:50.335Z,21.12
2022-12-20T10:45:01.630Z,21.12
2022-12-20T10:45:13.186Z,21.12
2022-12-20T10:45:24.496Z,21.13
2022-12-20T10:45:36.596Z,21.12
2022-12-20T10:45:48.252Z,21.14
2022-12-20T10:45:59.540Z,21.13
2022-12-20T10:46:11.168Z,21.14
2022-12-20T10:46:22.590Z,21.15
2022-12-20T10:46:34.262Z,21.15
2022-12-20T10:46:45.700Z,21.16
2022-12-20T10:46:57.429Z,21.15
2022-12-20T10:47:08.894Z,21.15
2022-12-20T10:47:20.491Z,21.16
2022-12-20T10:47:31.795Z,21.16
2022-12-20T10:47:43.364Z,21.16
2022-12-20T10:47:54.649Z,21.17
2022-12-20T10:48:06.242Z,21.18
2022-12-20T10:48:17.543Z,21.18
2022-12-20T10:48:29.184Z,21.18
2022-12-20T10:48:40.496Z,21.19
2022-12-20T10:48:52.055Z,21.19
2022-12-20T10:49:03.349Z,21.19
2022-12-20T10:49:14.911Z,21.20
2022-12-20T10:49:26.208Z,21.20
2022-12-20T10:49:37.767Z,21.20
2022-12-20T10:49:49.057Z,21.21
2022-12-20T10:50:00.599Z,21.22
2022-12-20T10:50:11.898Z,21.22
2022-12-20T10:50:23.457Z,21.23
2022-12-20T10:50:34.745Z,21.23
2022-12-20T10:50:46.299Z,21.24
2022-12-20T10:50:57.586Z,21.24
2022-12-20T10:51:15.137Z,21.25
2022-12-20T10:51:21.103Z,21.23
2022-12-20T10:51:32.468Z,21.25
2022-12-20T10:51:44.030Z,21.26
2022-12-20T10:51:55.325Z,21.25
2022-12-20T10:52:06.875Z,21.26
2022-12-20T10:52:18.172Z,21.27
2022-12-20T10:52:29.710Z,21.27
2022-12-20T10:52:40.993Z,21.28
2022-12-20T10:52:52.555Z,21.28
2022-12-20T10:53:03.852Z,21.28
2022-12-20T10:53:15.415Z,21.28
2022-12-20T10:53:26.701Z,21.30
2022-12-20T10:53:38.252Z,21.30
2022-12-20T10:53:49.562Z,21.30
2022-12-20T10:54:01.204Z,21.31
2022-12-20T10:54:12.550Z,21.31
2022-12-20T10:54:24.109Z,21.31
2022-12-20T10:54:35.420Z,21.31
2022-12-20T10:54:47.010Z,21.31
2022-12-20T10:54:58.305Z,21.31
2022-12-20T10:55:09.857Z,21.33
2022-12-20T10:55:21.149Z,21.32
2022-12-20T10:55:32.717Z,21.33
2022-12-20T10:55:44.041Z,21.33
2022-12-20T10:55:55.594Z,21.34
2022-12-20T10:56:06.892Z,21.34
2022-12-20T10:56:18.457Z,21.34
2022-12-20T10:56:29.772Z,21.35
2022-12-20T10:56:41.364Z,21.35
2022-12-20T10:56:52.706Z,21.36
2022-12-20T10:57:04.312Z,21.35
2022-12-20T10:57:15.613Z,21.35
2022-12-20T10:57:27.155Z,21.36
2022-12-20T10:57:38.454Z,21.36
2022-12-20T10:57:50.012Z,21.36
2022-12-20T10:58:01.326Z,21.36
2022-12-20T10:58:12.890Z,21.37
2022-12-20T10:58:24.186Z,21.37
2022-12-20T10:58:35.759Z,21.37
2022-12-20T10:58:47.078Z,21.37
2022-12-20T10:58:58.660Z,21.37
2022-12-20T10:59:09.959Z,21.38
2022-12-20T10:59:21.517Z,21.38
2022-12-20T10:59:32.835Z,21.38
2022-12-20T10:59:44.392Z,21.38
2022-12-20T10:59:55.688Z,21.39
2022-12-20T11:00:07.239Z,21.39
2022-12-20T11:00:18.551Z,21.39
2022-12-20T11:00:30.125Z,21.39